createdAt,value
2017-12-27T00:01:53.590Z,7.03
2017-12-27T00:04:26.557Z,8.20
2017-12-27T00:06:59.661Z,8.33
2017-12-27T00:09:32.825Z,8.60
2017-12-27T00:12:05.825Z,8.00
2017-12-27T00:14:38.865Z,8.60
2017-12-27T00:20:11.784Z,8.87
2017-12-27T00:22:44.975Z,9.33
2017-12-27T00:25:17.991Z,10.23
2017-12-27T00:30:52.239Z,7.93
2017-12-27T00:33:19.733Z,9.23
2017-12-27T00:35:47.194Z,9.53
2017-12-27T00:38:14.669Z,9.17
2017-12-27T00:40:42.132Z,9.10
2017-12-27T00:43:09.620Z,8.37
2017-12-27T00:45:37.083Z,7.83
2017-12-27T00:48:04.523Z,9.83
2017-12-27T00:50:31.986Z,8.60
2017-12-27T00:52:59.440Z,8.93
2017-12-27T00:55:26.921Z,9.27
2017-12-27T00:57:54.374Z,8.00
2017-12-27T01:00:21.823Z,8.50
2017-12-27T01:02:49.315Z,8.30
2017-12-27T01:05:16.764Z,8.90
2017-12-27T01:07:44.250Z,9.00
2017-12-27T01:10:11.713Z,9.00
2017-12-27T01:12:39.175Z,9.60
2017-12-27T01:15:06.614Z,8.50
2017-12-27T01:17:34.097Z,9.07
2017-12-27T01:20:01.551Z,10.23
2017-12-27T01:22:28.994Z,8.43
2017-12-27T01:24:56.456Z,9.13
2017-12-27T01:27:23.911Z,8.10
2017-12-27T01:29:51.374Z,8.97
2017-12-27T01:32:18.829Z,9.97
2017-12-27T01:34:46.296Z,10.13
2017-12-27T01:37:13.738Z,9.77
2017-12-27T01:39:41.202Z,10.57
2017-12-27T01:42:08.651Z,9.60
2017-12-27T01:44:36.120Z,10.27
2017-12-27T01:47:11.608Z,10.57
2017-12-27T01:49:39.084Z,9.20
2017-12-27T01:52:06.540Z,9.20
2017-12-27T01:54:33.993Z,8.43
2017-12-27T01:57:01.470Z,9.03
2017-12-27T01:59:28.923Z,8.20
2017-12-27T02:01:56.374Z,9.30
2017-12-27T02:04:23.823Z,9.93
2017-12-27T02:06:51.286Z,8.67
2017-12-27T02:09:18.735Z,10.33
2017-12-27T02:11:46.450Z,11.13
2017-12-27T02:14:13.923Z,10.83
2017-12-27T02:16:41.383Z,10.50
2017-12-27T02:19:08.842Z,10.63
2017-12-27T02:21:36.295Z,13.37
2017-12-27T02:24:03.758Z,11.87
2017-12-27T02:26:31.217Z,11.93
2017-12-27T02:28:58.705Z,12.40
2017-12-27T02:31:26.162Z,11.43
2017-12-27T02:33:53.625Z,10.93
2017-12-27T02:36:21.087Z,11.57
2017-12-27T02:38:57.143Z,11.00
2017-12-27T02:41:24.615Z,11.67
2017-12-27T02:43:52.167Z,11.10
2017-12-27T02:46:19.660Z,10.97
2017-12-27T02:48:47.112Z,10.53
2017-12-27T02:51:14.605Z,10.40
2017-12-27T02:53:42.080Z,10.47
2017-12-27T02:56:09.539Z,10.07
2017-12-27T02:58:36.997Z,11.53
2017-12-27T03:01:04.525Z,9.53
2017-12-27T03:03:32.084Z,9.43
2017-12-27T03:05:59.578Z,10.17
2017-12-27T03:08:27.386Z,8.70
2017-12-27T03:10:54.858Z,9.13
2017-12-27T03:13:22.431Z,9.73
2017-12-27T03:15:49.910Z,8.87
2017-12-27T03:18:17.371Z,10.23
2017-12-27T03:20:44.830Z,7.83
2017-12-27T03:23:12.319Z,10.53
2017-12-27T03:25:39.780Z,8.93
2017-12-27T03:28:07.230Z,9.30
2017-12-27T03:30:34.686Z,9.47
2017-12-27T03:33:02.202Z,8.47
2017-12-27T03:35:29.665Z,9.60
2017-12-27T03:37:57.242Z,9.30
2017-12-27T03:40:24.769Z,8.73
2017-12-27T03:42:52.214Z,8.43
2017-12-27T03:45:19.651Z,8.53
2017-12-27T03:47:47.124Z,8.57
2017-12-27T03:50:14.588Z,7.70
2017-12-27T03:52:42.059Z,9.33
2017-12-27T03:55:09.528Z,8.00
2017-12-27T03:57:37.421Z,8.57
2017-12-27T04:00:04.871Z,8.53
2017-12-27T04:02:32.417Z,8.83
2017-12-27T04:04:59.953Z,8.27
2017-12-27T04:07:27.429Z,6.93
2017-12-27T04:09:54.867Z,6.57
2017-12-27T04:12:22.313Z,6.17
2017-12-27T04:14:49.772Z,5.73
2017-12-27T04:17:17.231Z,6.63
2017-12-27T04:19:44.714Z,6.60
2017-12-27T04:22:12.265Z,6.53
2017-12-27T04:24:39.784Z,6.53
2017-12-27T04:27:07.231Z,6.47
2017-12-27T04:29:34.694Z,6.67
2017-12-27T04:32:02.160Z,6.23
2017-12-27T04:34:29.615Z,6.67
2017-12-27T04:36:57.075Z,5.23
2017-12-27T04:39:24.528Z,7.23
2017-12-27T04:41:51.975Z,6.40
2017-12-27T04:44:19.416Z,6.43
2017-12-27T04:46:46.889Z,6.40
2017-12-27T04:49:14.328Z,7.10
2017-12-27T04:51:41.785Z,6.50
2017-12-27T04:54:09.235Z,6.97
2017-12-27T04:56:36.721Z,7.37
2017-12-27T04:59:04.168Z,7.60
2017-12-27T05:01:31.611Z,6.83
2017-12-27T05:03:59.196Z,6.83
2017-12-27T05:06:26.720Z,6.53
2017-12-27T05:08:54.278Z,7.20
2017-12-27T05:11:21.750Z,7.33
2017-12-27T05:13:49.341Z,6.90
2017-12-27T05:16:16.783Z,6.70
2017-12-27T05:18:44.253Z,6.57
2017-12-27T05:21:11.697Z,6.20
2017-12-27T05:23:39.139Z,7.63
2017-12-27T05:26:06.589Z,6.87
2017-12-27T05:28:34.076Z,6.50
2017-12-27T05:31:01.525Z,6.60
2017-12-27T05:33:28.983Z,7.23
2017-12-27T05:35:56.433Z,7.37
2017-12-27T05:38:23.874Z,7.03
2017-12-27T05:40:51.336Z,6.60
2017-12-27T05:43:18.882Z,7.60
2017-12-27T05:45:46.402Z,7.00
2017-12-27T05:48:13.849Z,8.07
2017-12-27T05:50:41.324Z,8.27
2017-12-27T05:53:08.868Z,8.43
2017-12-27T05:55:36.323Z,8.23
2017-12-27T05:58:03.779Z,8.50
2017-12-27T06:00:31.231Z,8.97
2017-12-27T06:02:58.704Z,7.97
2017-12-27T06:05:26.219Z,8.60
2017-12-27T06:07:53.696Z,7.97
2017-12-27T06:10:21.144Z,9.37
2017-12-27T06:12:48.639Z,8.03
2017-12-27T06:15:16.086Z,7.53
2017-12-27T06:17:43.564Z,8.50
2017-12-27T06:20:11.024Z,7.70
2017-12-27T06:22:38.458Z,6.90
2017-12-27T06:25:05.924Z,6.80
2017-12-27T06:27:33.397Z,7.10
2017-12-27T06:30:00.927Z,6.83
2017-12-27T06:32:28.392Z,5.97
2017-12-27T06:34:55.859Z,6.83
2017-12-27T06:37:23.335Z,6.73
2017-12-27T06:39:50.776Z,6.77
2017-12-27T06:42:18.235Z,6.23
2017-12-27T06:44:45.677Z,6.47
2017-12-27T06:47:13.128Z,7.60
2017-12-27T06:49:40.557Z,6.67
2017-12-27T06:52:08.063Z,5.83
2017-12-27T06:54:35.516Z,6.73
2017-12-27T06:57:02.998Z,6.13
2017-12-27T06:59:30.465Z,5.87
2017-12-27T07:01:57.903Z,6.47
2017-12-27T07:04:25.379Z,6.03
2017-12-27T07:06:52.816Z,6.80
2017-12-27T07:09:20.310Z,6.23
2017-12-27T07:11:47.749Z,7.03
2017-12-27T07:14:15.203Z,7.63
2017-12-27T07:16:42.657Z,7.23
2017-12-27T07:19:10.094Z,7.40
2017-12-27T07:21:37.540Z,6.73
2017-12-27T07:24:04.979Z,7.23
2017-12-27T07:26:32.435Z,8.20
2017-12-27T07:28:59.885Z,8.57
2017-12-27T07:31:27.350Z,7.57
2017-12-27T07:33:54.807Z,8.93
2017-12-27T07:36:22.248Z,7.87
2017-12-27T07:38:49.694Z,7.03
2017-12-27T07:41:17.128Z,6.63
2017-12-27T07:43:44.603Z,6.30
2017-12-27T07:46:12.058Z,8.13
2017-12-27T07:48:39.549Z,7.10
2017-12-27T07:51:06.995Z,7.50
2017-12-27T07:53:34.445Z,7.03
2017-12-27T07:56:01.896Z,7.13
2017-12-27T07:58:29.360Z,6.37
2017-12-27T08:00:56.862Z,6.83
2017-12-27T08:03:24.300Z,6.03
2017-12-27T08:05:51.748Z,7.43
2017-12-27T08:08:19.214Z,7.40
2017-12-27T08:10:46.695Z,7.27
2017-12-27T08:13:14.158Z,7.27
2017-12-27T08:15:41.630Z,6.50
2017-12-27T08:18:09.096Z,7.33
2017-12-27T08:20:36.553Z,7.27
2017-12-27T08:23:04.046Z,9.10
2017-12-27T08:25:31.511Z,7.00
2017-12-27T08:27:58.992Z,6.90
2017-12-27T08:30:26.432Z,6.53
2017-12-27T08:32:53.892Z,5.97
2017-12-27T08:35:21.341Z,5.87
2017-12-27T08:37:48.794Z,6.10
2017-12-27T08:40:16.261Z,7.07
2017-12-27T08:42:43.719Z,6.03
2017-12-27T08:45:11.167Z,6.87
2017-12-27T08:47:38.607Z,6.60
2017-12-27T08:50:06.054Z,6.30
2017-12-27T08:52:33.490Z,5.93
2017-12-27T08:55:00.937Z,7.40
2017-12-27T08:57:28.429Z,8.47
2017-12-27T08:59:55.889Z,8.00
2017-12-27T09:02:23.340Z,7.87
2017-12-27T09:04:50.822Z,8.27
2017-12-27T09:07:18.481Z,8.10
2017-12-27T09:09:45.938Z,7.73
2017-12-27T09:12:13.390Z,9.07
2017-12-27T09:14:40.856Z,9.37
2017-12-27T09:17:08.315Z,8.50
2017-12-27T09:19:35.780Z,9.73
2017-12-27T09:22:03.243Z,10.17
2017-12-27T09:24:30.696Z,10.07
2017-12-27T09:26:58.164Z,10.10
2017-12-27T09:29:25.606Z,9.30
2017-12-27T09:31:53.070Z,10.67
2017-12-27T09:34:20.528Z,10.30
2017-12-27T09:36:48.000Z,11.30
2017-12-27T09:39:15.477Z,11.27
2017-12-27T09:41:42.916Z,10.77
2017-12-27T09:44:10.370Z,11.07
2017-12-27T09:46:37.845Z,12.00
2017-12-27T09:49:05.349Z,12.93
2017-12-27T09:51:32.807Z,12.23
2017-12-27T09:54:00.300Z,11.43
2017-12-27T09:56:27.778Z,11.10
2017-12-27T09:58:55.234Z,10.57
2017-12-27T10:01:22.683Z,12.00
2017-12-27T10:03:50.137Z,12.20
2017-12-27T10:06:17.582Z,11.80
2017-12-27T10:08:45.036Z,13.33
2017-12-27T10:11:12.492Z,13.77
2017-12-27T10:13:39.992Z,13.87
2017-12-27T10:16:07.557Z,14.57
2017-12-27T10:18:35.003Z,14.33
2017-12-27T10:21:02.469Z,14.80
2017-12-27T10:23:29.953Z,15.40
2017-12-27T10:25:57.422Z,14.60
2017-12-27T10:28:24.872Z,14.87
2017-12-27T10:30:52.331Z,12.40
2017-12-27T10:33:19.790Z,15.53
2017-12-27T10:35:47.258Z,15.97
2017-12-27T10:38:14.759Z,15.03
2017-12-27T10:40:42.252Z,15.73
2017-12-27T10:43:09.701Z,14.87
2017-12-27T10:45:37.146Z,14.57
2017-12-27T10:48:04.599Z,13.50
2017-12-27T10:50:32.053Z,15.10
2017-12-27T10:52:59.576Z,15.30
2017-12-27T10:55:27.049Z,15.43
2017-12-27T10:57:54.525Z,16.03
2017-12-27T11:00:21.968Z,15.00
2017-12-27T11:02:49.414Z,14.47
2017-12-27T11:05:16.859Z,12.90
2017-12-27T11:07:44.342Z,14.30
2017-12-27T11:10:11.782Z,15.03
2017-12-27T11:12:39.272Z,15.07
2017-12-27T11:15:06.792Z,16.17
2017-12-27T11:17:34.284Z,15.13
2017-12-27T11:20:01.748Z,14.83
2017-12-27T11:22:29.187Z,14.37
2017-12-27T11:24:56.692Z,15.97
2017-12-27T11:27:24.137Z,14.23
2017-12-27T11:29:51.605Z,14.83
2017-12-27T11:32:19.057Z,15.70
2017-12-27T11:34:46.526Z,14.33
2017-12-27T11:37:13.991Z,14.83
2017-12-27T11:39:41.549Z,15.73
2017-12-27T11:42:09.029Z,14.20
2017-12-27T11:44:36.522Z,14.87
2017-12-27T11:47:03.973Z,14.37
2017-12-27T11:49:31.419Z,13.50
2017-12-27T11:51:58.921Z,13.80
2017-12-27T11:54:26.379Z,13.70
2017-12-27T11:56:53.844Z,12.40
2017-12-27T11:59:21.288Z,14.77
2017-12-27T12:01:48.757Z,14.27
2017-12-27T12:04:16.215Z,13.43
2017-12-27T12:06:43.687Z,14.17
2017-12-27T12:09:11.166Z,13.87
2017-12-27T12:11:38.628Z,13.33
2017-12-27T12:14:06.084Z,12.07
2017-12-27T12:16:33.551Z,13.00
2017-12-27T12:19:01.012Z,15.73
2017-12-27T12:21:28.468Z,14.13
2017-12-27T12:23:55.927Z,13.03
2017-12-27T12:26:23.404Z,13.57
2017-12-27T12:28:50.873Z,13.83
2017-12-27T12:31:19.383Z,12.83
2017-12-27T12:33:46.827Z,14.93
2017-12-27T12:36:14.296Z,14.37
2017-12-27T12:38:41.752Z,15.73
2017-12-27T12:41:09.287Z,14.13
2017-12-27T12:43:36.748Z,13.30
2017-12-27T12:46:04.208Z,14.83
2017-12-27T12:48:31.678Z,13.50
2017-12-27T12:50:59.152Z,12.50
2017-12-27T12:53:26.611Z,14.20
2017-12-27T12:55:54.080Z,13.60
2017-12-27T12:58:21.532Z,13.80
2017-12-27T13:00:48.990Z,14.47
2017-12-27T13:03:16.521Z,14.20
2017-12-27T13:05:43.990Z,13.63
2017-12-27T13:08:11.452Z,14.53
2017-12-27T13:10:38.893Z,13.53
2017-12-27T13:13:06.364Z,13.70
2017-12-27T13:15:33.817Z,15.53
2017-12-27T13:18:01.302Z,14.80
2017-12-27T13:20:28.765Z,13.57
2017-12-27T13:22:56.220Z,13.97
2017-12-27T13:25:23.668Z,15.53
2017-12-27T13:27:51.117Z,13.33
2017-12-27T13:30:18.589Z,15.43
2017-12-27T13:32:46.083Z,15.03
2017-12-27T13:35:13.540Z,14.33
2017-12-27T13:37:40.992Z,14.93
2017-12-27T13:40:08.479Z,15.03
2017-12-27T13:42:35.961Z,14.67
2017-12-27T13:45:03.411Z,14.80
2017-12-27T13:47:30.899Z,13.23
2017-12-27T13:49:58.450Z,14.97
2017-12-27T13:52:25.902Z,13.53
2017-12-27T13:54:53.362Z,12.40
2017-12-27T13:57:20.821Z,13.77
2017-12-27T13:59:48.278Z,14.03
2017-12-27T14:02:15.728Z,12.57
2017-12-27T14:04:43.283Z,14.43
2017-12-27T14:07:10.740Z,15.47
2017-12-27T14:09:38.189Z,13.57
2017-12-27T14:12:05.653Z,12.70
2017-12-27T14:14:33.121Z,15.33
2017-12-27T14:17:00.576Z,13.50
2017-12-27T14:19:28.032Z,14.53
2017-12-27T14:21:55.488Z,14.30
2017-12-27T14:24:22.970Z,14.43
2017-12-27T14:26:50.426Z,14.27
2017-12-27T14:29:17.886Z,14.00
2017-12-27T14:31:45.348Z,14.77
2017-12-27T14:34:12.810Z,14.40
2017-12-27T14:36:40.281Z,13.47
2017-12-27T14:39:07.737Z,15.23
2017-12-27T14:41:35.216Z,14.63
2017-12-27T14:44:02.669Z,14.27
2017-12-27T14:46:30.133Z,15.40
2017-12-27T14:48:57.584Z,13.83
2017-12-27T14:51:25.047Z,15.27
2017-12-27T14:53:52.496Z,14.03
2017-12-27T14:56:19.967Z,14.43
2017-12-27T14:58:47.419Z,16.03
2017-12-27T15:01:14.885Z,15.50
2017-12-27T15:03:42.345Z,15.77
2017-12-27T15:06:09.838Z,15.97
2017-12-27T15:08:37.288Z,15.70
2017-12-27T15:11:04.746Z,15.27
2017-12-27T15:13:32.205Z,15.07
2017-12-27T15:15:59.661Z,14.87
2017-12-27T15:18:27.173Z,16.33
2017-12-27T15:20:54.621Z,15.70
2017-12-27T15:23:22.080Z,16.10
2017-12-27T15:25:49.585Z,16.37
2017-12-27T15:28:17.083Z,15.77
2017-12-27T15:30:44.593Z,15.93
2017-12-27T15:33:12.052Z,17.47
2017-12-27T15:35:39.517Z,17.27
2017-12-27T15:38:06.976Z,16.90
2017-12-27T15:40:34.450Z,16.60
2017-12-27T15:43:01.901Z,17.57
2017-12-27T15:45:29.359Z,18.03
2017-12-27T15:47:56.817Z,16.70
2017-12-27T15:50:24.261Z,17.13
2017-12-27T15:52:56.096Z,17.87
2017-12-27T15:55:23.549Z,16.43
2017-12-27T15:57:51.014Z,18.67
2017-12-27T16:00:18.526Z,16.53
2017-12-27T16:02:46.013Z,16.23
2017-12-27T16:05:13.469Z,16.90
2017-12-27T16:07:41.019Z,18.00
2017-12-27T16:10:08.502Z,17.10
2017-12-27T16:12:35.964Z,17.03
2017-12-27T16:15:03.420Z,16.27
2017-12-27T16:17:31.027Z,18.17
2017-12-27T16:19:58.535Z,17.07
2017-12-27T16:22:25.991Z,16.77
2017-12-27T16:24:53.452Z,17.23
2017-12-27T16:27:20.945Z,17.57
2017-12-27T16:29:48.443Z,17.13
2017-12-27T16:32:15.988Z,15.67
2017-12-27T16:34:43.785Z,16.70
2017-12-27T16:37:11.238Z,15.93
2017-12-27T16:39:38.773Z,18.00
2017-12-27T16:42:06.233Z,18.23
2017-12-27T16:44:33.724Z,17.73
2017-12-27T16:47:01.311Z,17.63
2017-12-27T16:49:28.769Z,16.27
2017-12-27T16:51:56.281Z,17.83
2017-12-27T16:54:23.740Z,16.87
2017-12-27T16:56:51.238Z,17.37
2017-12-27T16:59:18.847Z,16.03
2017-12-27T17:01:46.296Z,16.13
2017-12-27T17:04:13.749Z,18.03
2017-12-27T17:06:41.246Z,18.47
2017-12-27T17:09:08.704Z,17.53
2017-12-27T17:11:36.187Z,17.27
2017-12-27T17:14:03.641Z,18.97
2017-12-27T17:16:31.092Z,20.73
2017-12-27T17:18:58.608Z,17.63
2017-12-27T17:21:26.048Z,18.10
2017-12-27T17:23:53.660Z,17.33
2017-12-27T17:26:21.148Z,17.63
2017-12-27T17:28:50.320Z,16.57
2017-12-27T17:31:17.849Z,17.27
2017-12-27T17:33:45.391Z,17.13
2017-12-27T17:36:12.850Z,16.37
2017-12-27T17:38:40.343Z,16.67
2017-12-27T17:41:07.844Z,15.80
2017-12-27T17:43:35.354Z,17.07
2017-12-27T17:46:02.857Z,16.70
2017-12-27T17:48:30.310Z,17.03
2017-12-27T17:50:57.757Z,16.30
2017-12-27T17:53:25.262Z,17.00
2017-12-27T17:55:52.761Z,15.93
2017-12-27T17:58:20.282Z,17.17
2017-12-27T18:00:47.861Z,17.70
2017-12-27T18:03:15.401Z,18.33
2017-12-27T18:05:42.899Z,18.10
2017-12-27T18:08:10.418Z,16.57
2017-12-27T18:10:37.928Z,16.70
2017-12-27T18:13:05.476Z,17.23
2017-12-27T18:15:32.957Z,17.30
2017-12-27T18:18:00.460Z,17.20
2017-12-27T18:20:27.956Z,19.00
2017-12-27T18:22:55.455Z,18.33
2017-12-27T18:25:22.984Z,17.13
2017-12-27T18:27:50.491Z,17.53
2017-12-27T18:30:18.038Z,18.83
2017-12-27T18:32:45.540Z,20.70
2017-12-27T18:35:13.023Z,19.40
2017-12-27T18:37:40.520Z,18.47
2017-12-27T18:40:08.022Z,17.10
2017-12-27T18:42:35.558Z,17.27
2017-12-27T18:45:03.014Z,15.73
2017-12-27T18:47:30.568Z,16.47
2017-12-27T18:49:58.077Z,19.27
2017-12-27T18:52:25.597Z,18.03
2017-12-27T18:54:53.094Z,17.00
2017-12-27T18:57:20.614Z,17.50
2017-12-27T18:59:48.078Z,17.27
2017-12-27T19:02:15.620Z,17.07
2017-12-27T19:04:43.932Z,15.50
2017-12-27T19:07:11.418Z,17.23
2017-12-27T19:09:38.971Z,17.87
2017-12-27T19:12:06.512Z,17.77
2017-12-27T19:14:33.963Z,16.80
2017-12-27T19:17:01.479Z,17.83
2017-12-27T19:19:29.028Z,17.80
2017-12-27T19:21:56.556Z,15.77
2017-12-27T19:24:24.060Z,16.30
2017-12-27T19:26:51.605Z,16.23
2017-12-27T19:29:19.133Z,17.73
2017-12-27T19:31:46.628Z,17.50
2017-12-27T19:34:14.181Z,17.30
2017-12-27T19:36:41.676Z,16.73
2017-12-27T19:39:09.208Z,17.73
2017-12-27T19:41:36.757Z,16.47
2017-12-27T19:44:04.283Z,16.70
2017-12-27T19:46:31.798Z,16.10
2017-12-27T19:48:59.449Z,16.37
2017-12-27T19:51:26.954Z,16.50
2017-12-27T19:53:54.493Z,16.30
2017-12-27T19:56:21.992Z,16.97
2017-12-27T19:58:49.647Z,16.33
2017-12-27T20:01:17.142Z,15.60
2017-12-27T20:03:44.644Z,17.73
2017-12-27T20:06:12.176Z,16.47
2017-12-27T20:08:39.737Z,16.20
2017-12-27T20:11:07.260Z,16.87
2017-12-27T20:13:34.768Z,17.83
2017-12-27T20:16:02.336Z,15.67
2017-12-27T20:18:29.870Z,16.47
2017-12-27T20:20:57.470Z,15.70
2017-12-27T20:23:24.975Z,14.50
2017-12-27T20:25:52.511Z,15.57
2017-12-27T20:28:20.008Z,16.83
2017-12-27T20:30:47.558Z,17.37
2017-12-27T20:33:15.054Z,15.33
2017-12-27T20:35:42.558Z,14.83
2017-12-27T20:38:10.125Z,15.43
2017-12-27T20:40:37.651Z,15.77
2017-12-27T20:43:05.155Z,15.73
2017-12-27T20:45:32.690Z,16.03
2017-12-27T20:48:00.200Z,15.43
2017-12-27T20:50:27.717Z,15.10
2017-12-27T20:52:55.232Z,16.93
2017-12-27T20:55:22.768Z,16.20
2017-12-27T20:57:50.262Z,15.37
2017-12-27T21:02:54.786Z,15.37
2017-12-27T21:05:22.277Z,17.67
2017-12-27T21:07:49.780Z,18.07
2017-12-27T21:10:17.320Z,17.30
2017-12-27T21:12:44.827Z,16.70
2017-12-27T21:15:12.335Z,16.37
2017-12-27T21:17:39.877Z,17.10
2017-12-27T21:20:07.372Z,16.57
2017-12-27T21:22:34.999Z,14.87
2017-12-27T21:25:02.500Z,15.37
2017-12-27T21:27:29.997Z,14.80
2017-12-27T21:29:57.587Z,16.53
2017-12-27T21:32:25.088Z,14.87
2017-12-27T21:34:52.663Z,15.50
2017-12-27T21:37:20.166Z,14.70
2017-12-27T21:39:47.696Z,16.83
2017-12-27T21:42:15.224Z,15.47
2017-12-27T21:44:42.736Z,16.47
2017-12-27T21:47:10.299Z,16.33
2017-12-27T21:52:33.343Z,15.57
2017-12-27T21:55:00.857Z,14.00
2017-12-27T21:57:28.406Z,15.10
2017-12-27T22:03:00.955Z,15.90
2017-12-27T22:05:28.488Z,13.43
2017-12-27T22:07:55.984Z,14.93
2017-12-27T22:10:23.498Z,13.27
2017-12-27T22:12:51.009Z,13.17
2017-12-27T22:15:18.556Z,13.80
2017-12-27T22:17:46.092Z,15.87
2017-12-27T22:20:19.177Z,13.07
2017-12-27T22:22:46.725Z,13.67
2017-12-27T22:25:14.211Z,14.47
2017-12-27T22:27:41.708Z,13.27
2017-12-27T22:30:09.260Z,12.07
2017-12-27T22:32:36.776Z,12.67
2017-12-27T22:35:04.332Z,12.57
2017-12-27T22:37:31.831Z,14.70
2017-12-27T22:39:59.339Z,14.63
2017-12-27T22:42:26.857Z,14.80
2017-12-27T22:44:54.349Z,15.00
2017-12-27T22:47:21.883Z,13.80
2017-12-27T22:49:49.371Z,14.00
2017-12-27T22:52:16.925Z,11.80
2017-12-27T22:54:44.429Z,14.03
2017-12-27T22:57:11.982Z,14.40
2017-12-27T22:59:39.526Z,12.10
2017-12-27T23:02:07.051Z,14.47
2017-12-27T23:04:34.560Z,12.50
2017-12-27T23:07:02.091Z,12.03
2017-12-27T23:09:29.582Z,13.03
2017-12-27T23:11:57.121Z,12.47
2017-12-27T23:14:24.617Z,14.00
2017-12-27T23:16:52.115Z,11.63
2017-12-27T23:19:19.669Z,12.77
2017-12-27T23:21:47.167Z,16.83
2017-12-27T23:24:14.692Z,18.30
2017-12-27T23:26:42.187Z,16.47
2017-12-27T23:29:09.721Z,15.70
2017-12-27T23:31:37.235Z,15.17
2017-12-27T23:34:04.759Z,12.87
2017-12-27T23:36:32.310Z,12.23
2017-12-27T23:38:59.806Z,14.30
2017-12-27T23:41:27.340Z,12.97
2017-12-27T23:43:54.843Z,13.03
2017-12-27T23:46:22.380Z,13.27
2017-12-27T23:48:49.905Z,13.90
2017-12-27T23:51:17.435Z,13.07
2017-12-27T23:53:44.953Z,14.47
2017-12-27T23:56:12.442Z,15.23
2017-12-27T23:58:39.962Z,13.87
